Linton, Kentucky
Current Conditions -  °F | °C
As of 11:58 AM on Friday 24 Oct 2014 (Local Time) from KHOP Reporting Station
Scattered Clouds Scattered Clouds  
Wind Chill: 63°   Ceiling: Unl
Heat Index: 63°   Visibility: 10mi
Dew Point: 45°   Wind: 2mph
Humidity: 52%   Direction: NA
Pressure: 30.13"   Gusts: NA
Location:  36.8031°N, 87.8159°W
Report Text: KHOP 241658Z AUTO VRB02KT 10SM FEW047 SCT055 17/07 A3013 RMK AO2 SLP204 T01720073
Loading
Personal Weather Stations






























Interactive Weather Map
Tropical Storm Tracking
New forecast layout! Learn more

10-Day Weather Forecast

Advertisements
Track Severe Weather on mobile